Time;durP1;ratioP1;P1;durP2;ratioP2;P2;SDS_P1;SDS_P2;PMS_P1;PMS_P2;Temp;Humidity;BMP_temperature;BMP_pressure;BME280_temperature;BME280_humidity;BME280_pressure;Samples;Min_cycle;Max_cycle;Signal;HPM_P1;HPM_P2
2023/09/08 00:00:40;;;;;;;6.30;4.15;;;19.00;71.00;;;;;;5028640;28;20033;-74
2023/09/08 00:03:06;;;;;;;10.27;4.10;;;19.00;71.20;;;;;;5025346;28;20123;-73
2023/09/08 00:05:31;;;;;;;8.10;3.80;;;18.80;72.20;;;;;;5021441;28;20454;-73
2023/09/08 00:07:57;;;;;;;7.85;4.20;;;18.80;72.10;;;;;;5031732;28;20473;-73
2023/09/08 00:10:23;;;;;;;6.82;4.00;;;18.80;72.00;;;;;;5025586;28;20061;-72
2023/09/08 00:12:49;;;;;;;7.53;3.80;;;18.80;71.60;;;;;;5035149;28;20120;-73
2023/09/08 00:15:14;;;;;;;6.85;4.20;;;18.90;71.40;;;;;;5023568;28;20112;-74
2023/09/08 00:17:40;;;;;;;7.03;4.18;;;18.80;71.80;;;;;;5029883;28;20053;-73
2023/09/08 00:20:09;;;;;;;8.65;4.50;;;18.90;71.70;;;;;;5025560;28;20033;-73
2023/09/08 00:22:35;;;;;;;6.75;4.10;;;18.90;71.50;;;;;;5025488;28;20041;-74
2023/09/08 00:25:01;;;;;;;7.25;4.10;;;18.90;71.70;;;;;;5026046;28;20037;-73
2023/09/08 00:27:27;;;;;;;8.80;3.70;;;18.90;71.80;;;;;;5028619;28;20040;-73
2023/09/08 00:29:52;;;;;;;7.55;4.00;;;18.70;72.20;;;;;;5023124;28;20383;-73
2023/09/08 00:32:18;;;;;;;6.78;4.32;;;18.60;73.00;;;;;;5022919;28;20512;-72
2023/09/08 00:34:43;;;;;;;7.72;4.40;;;18.50;72.90;;;;;;5038077;28;20033;-73
2023/09/08 00:37:09;;;;;;;9.00;4.55;;;18.60;72.60;;;;;;5034083;28;20088;-73
2023/09/08 00:39:36;;;;;;;9.15;4.53;;;18.60;72.60;;;;;;5027905;28;20130;-73
2023/09/08 00:42:01;;;;;;;9.25;3.92;;;18.40;73.60;;;;;;5026213;28;20041;-74
2023/09/08 00:44:27;;;;;;;6.78;3.90;;;18.50;73.10;;;;;;5021990;28;20478;-73
2023/09/08 00:46:52;;;;;;;8.75;4.13;;;18.50;73.30;;;;;;5023016;28;20489;-73
2023/09/08 00:49:20;;;;;;;7.57;3.70;;;18.50;73.10;;;;;;5026175;28;20037;-73
2023/09/08 00:51:45;;;;;;;8.05;4.50;;;18.50;73.20;;;;;;5034795;28;20100;-73
2023/09/08 00:54:11;;;;;;;5.90;4.03;;;18.40;73.70;;;;;;5028759;28;20132;-73
2023/09/08 00:56:38;;;;;;;6.57;4.45;;;18.40;73.80;;;;;;5025911;28;20033;-73
2023/09/08 00:59:04;;;;;;;8.25;4.57;;;18.30;73.90;;;;;;5023428;28;20060;-74
2023/09/08 01:01:30;;;;;;;7.13;4.20;;;18.10;74.80;;;;;;5020149;28;20040;-73
2023/09/08 01:03:56;;;;;;;8.45;4.35;;;18.10;74.60;;;;;;5026160;28;20045;-73
2023/09/08 01:06:22;;;;;;;11.55;4.68;;;18.20;74.70;;;;;;5025298;28;20025;-73
2023/09/08 01:08:48;;;;;;;10.27;4.43;;;18.20;74.60;;;;;;5028551;28;20421;-73
2023/09/08 01:11:14;;;;;;;7.00;4.65;;;18.00;75.10;;;;;;5027545;28;20254;-74
2023/09/08 01:13:39;;;;;;;7.88;4.47;;;18.00;75.30;;;;;;5025878;28;20030;-73
2023/09/08 01:16:04;;;;;;;7.75;4.60;;;17.80;75.90;;;;;;5026520;28;20110;-73
2023/09/08 01:18:30;;;;;;;7.88;3.92;;;17.90;76.20;;;;;;5021601;28;20046;-72
2023/09/08 01:21:37;;;;;;;8.20;4.55;;;18.00;75.70;;;;;;5008617;28;20033;-73
2023/09/08 01:24:37;;;;;;;8.63;4.50;;;18.10;75.00;;;;;;5028747;28;20480;-73
2023/09/08 01:27:02;;;;;;;9.15;4.60;;;18.00;75.20;;;;;;5025589;28;20462;-74
2023/09/08 01:29:29;;;;;;;8.80;4.45;;;18.00;75.30;;;;;;5026198;28;20036;-73
2023/09/08 01:31:55;;;;;;;10.65;4.60;;;18.00;75.40;;;;;;5021285;28;20033;-73
2023/09/08 01:34:21;;;;;;;6.95;4.88;;;18.00;75.90;;;;;;5028174;28;20025;-73
2023/09/08 01:36:47;;;;;;;6.55;4.68;;;18.00;75.30;;;;;;5027067;28;20116;-73
2023/09/08 01:39:13;;;;;;;6.70;4.45;;;18.00;75.50;;;;;;5026904;28;20488;-73
2023/09/08 01:41:38;;;;;;;8.27;4.32;;;18.00;75.50;;;;;;5025800;28;20117;-74
2023/09/08 01:44:07;;;;;;;9.52;4.40;;;17.90;76.00;;;;;;5022120;28;20140;-74
2023/09/08 01:46:33;;;;;;;8.77;4.63;;;17.80;76.30;;;;;;5025940;28;20500;-73
2023/09/08 01:48:59;;;;;;;6.70;4.93;;;17.70;76.60;;;;;;5023283;28;20036;-72
2023/09/08 01:51:25;;;;;;;7.13;4.40;;;17.70;76.90;;;;;;5025816;28;20038;-73
2023/09/08 01:53:50;;;;;;;8.35;4.82;;;17.70;76.30;;;;;;5024600;28;20049;-72
2023/09/08 01:56:15;;;;;;;10.40;4.95;;;17.70;76.60;;;;;;5024883;28;20037;-72
2023/09/08 01:58:41;;;;;;;6.32;4.50;;;17.60;77.10;;;;;;5026617;28;20053;-73
2023/09/08 02:01:06;;;;;;;7.13;4.68;;;17.70;76.70;;;;;;5025482;28;20410;-74
2023/09/08 02:03:32;;;;;;;7.68;4.45;;;17.70;76.80;;;;;;5023631;28;20042;-74
2023/09/08 02:05:58;;;;;;;8.93;4.30;;;17.60;77.20;;;;;;5026365;28;20457;-73
2023/09/08 02:08:23;;;;;;;9.85;4.95;;;17.50;77.30;;;;;;5023494;28;20021;-73
2023/09/08 02:10:49;;;;;;;7.90;4.88;;;17.60;77.30;;;;;;5028211;28;20406;-73
2023/09/08 02:13:14;;;;;;;8.23;4.88;;;17.40;78.30;;;;;;5026258;28;20037;-73
2023/09/08 02:15:40;;;;;;;7.03;4.50;;;17.40;78.10;;;;;;5025262;28;20045;-73
2023/09/08 02:18:07;;;;;;;8.10;4.53;;;17.40;78.40;;;;;;5025485;28;20042;-74
2023/09/08 02:20:32;;;;;;;9.20;4.95;;;17.30;78.50;;;;;;5032660;28;20029;-73
2023/09/08 02:23:03;;;;;;;7.63;4.35;;;17.20;78.60;;;;;;5021769;28;20041;-75
2023/09/08 02:25:28;;;;;;;;;;;17.20;78.80;;;;;;5032391;28;20094;-74
2023/09/08 02:27:54;;;;;;;7.47;4.55;;;17.00;79.70;;;;;;5028942;28;20335;-73
2023/09/08 02:30:19;;;;;;;9.95;4.88;;;17.00;79.70;;;;;;5025108;28;20040;-73
2023/09/08 02:32:45;;;;;;;8.32;4.38;;;17.00;79.40;;;;;;5032562;28;20095;-73
2023/09/08 02:35:11;;;;;;;7.28;4.78;;;17.10;79.40;;;;;;5026525;28;20064;-73
2023/09/08 02:37:36;;;;;;;6.63;4.57;;;17.00;80.00;;;;;;5029334;28;20034;-73
2023/09/08 02:40:03;;;;;;;9.27;4.93;;;17.00;80.10;;;;;;5028271;28;20072;-72
2023/09/08 02:42:29;;;;;;;7.35;4.80;;;16.90;80.10;;;;;;5027381;28;20040;-73
2023/09/08 02:44:54;;;;;;;7.88;4.97;;;16.90;80.20;;;;;;5024469;28;20033;-73
2023/09/08 02:47:20;;;;;;;12.15;5.00;;;16.80;80.10;;;;;;5023429;28;20040;-73
2023/09/08 02:49:45;;;;;;;10.60;5.40;;;16.80;80.50;;;;;;5029517;28;20045;-74
2023/09/08 02:52:10;;;;;;;9.20;4.63;;;16.90;80.60;;;;;;5031926;28;20139;-73
2023/09/08 02:54:36;;;;;;;7.38;5.00;;;16.70;80.60;;;;;;5026563;28;20094;-73
2023/09/08 02:57:01;;;;;;;9.13;5.45;;;16.70;81.10;;;;;;5033927;28;20029;-73
2023/09/08 02:59:27;;;;;;;8.45;5.32;;;16.60;81.50;;;;;;5030034;28;20362;-73
2023/09/08 03:01:52;;;;;;;7.38;4.72;;;16.50;81.50;;;;;;5030440;28;20051;-73
2023/09/08 03:04:18;;;;;;;9.20;5.20;;;16.50;81.60;;;;;;5037019;28;20497;-74
2023/09/08 03:06:43;;;;;;;7.60;5.50;;;16.50;81.90;;;;;;5034040;28;20039;-72
2023/09/08 03:09:09;;;;;;;9.43;5.25;;;16.40;82.30;;;;;;5029028;28;20091;-72
2023/09/08 03:11:34;;;;;;;10.15;4.88;;;16.30;82.50;;;;;;5035164;28;20033;-73
2023/09/08 03:14:00;;;;;;;8.57;5.18;;;16.10;83.10;;;;;;5024826;28;20458;-74
2023/09/08 03:16:25;;;;;;;9.68;5.75;;;16.00;83.50;;;;;;5032326;28;20077;-73
2023/09/08 03:18:51;;;;;;;9.98;5.57;;;16.00;84.00;;;;;;5026959;28;20462;-72
2023/09/08 03:21:16;;;;;;;11.23;6.00;;;16.00;84.00;;;;;;5026915;28;20029;-74
2023/09/08 03:23:44;;;;;;;8.85;5.50;;;16.00;84.40;;;;;;5029560;28;20112;-73
2023/09/08 03:26:10;;;;;;;9.18;5.70;;;16.00;84.30;;;;;;5011358;28;20390;-72
2023/09/08 03:28:37;;;;;;;9.35;5.57;;;16.00;84.10;;;;;;5029870;28;20065;-74
2023/09/08 03:31:03;;;;;;;8.75;5.65;;;16.00;84.10;;;;;;5024569;28;20057;-73
2023/09/08 03:33:30;;;;;;;9.50;5.70;;;15.90;84.40;;;;;;5021922;28;20049;-73
2023/09/08 03:35:55;;;;;;;9.55;5.90;;;15.90;84.60;;;;;;5014387;28;20029;-72
2023/09/08 03:38:21;;;;;;;9.85;6.15;;;15.90;84.50;;;;;;5040959;28;20040;-73
2023/09/08 03:40:47;;;;;;;9.93;5.95;;;15.90;84.60;;;;;;5024678;28;20053;-73
2023/09/08 03:43:13;;;;;;;8.90;5.97;;;15.90;84.70;;;;;;5028896;28;20457;-73
2023/09/08 03:45:38;;;;;;;11.75;6.38;;;15.90;84.70;;;;;;5024901;28;20037;-72
2023/09/08 03:48:04;;;;;;;9.40;6.35;;;16.00;84.40;;;;;;5022776;28;20053;-73
2023/09/08 03:50:30;;;;;;;10.85;6.18;;;16.00;84.20;;;;;;5030386;28;20524;-73
2023/09/08 03:52:56;;;;;;;8.32;6.15;;;16.10;84.10;;;;;;5027684;28;20091;-72
2023/09/08 03:55:21;;;;;;;8.63;5.80;;;16.20;83.90;;;;;;5022391;28;20034;-73
2023/09/08 03:57:47;;;;;;;11.25;6.00;;;16.20;83.70;;;;;;5033691;28;20450;-74
2023/09/08 04:00:19;;;;;;;10.25;6.22;;;16.10;84.10;;;;;;5022826;28;20025;-73
2023/09/08 04:02:44;;;;;;;10.90;6.18;;;16.20;83.80;;;;;;5016971;28;20088;-73
2023/09/08 04:05:10;;;;;;;9.18;5.32;;;16.30;83.60;;;;;;5027327;28;20037;-73
2023/09/08 04:07:36;;;;;;;9.10;6.35;;;16.30;83.40;;;;;;5036208;28;20451;-73
2023/09/08 04:10:02;;;;;;;10.40;6.10;;;16.10;83.80;;;;;;5036745;28;20053;-73
2023/09/08 04:12:28;;;;;;;14.25;6.50;;;16.00;84.10;;;;;;5027854;28;20033;-73
2023/09/08 04:14:53;;;;;;;17.92;6.65;;;16.10;84.30;;;;;;5031113;28;20039;-72
2023/09/08 04:17:19;;;;;;;8.75;5.22;;;16.00;84.50;;;;;;5023877;28;20049;-72
2023/09/08 04:19:44;;;;;;;10.75;6.40;;;16.10;84.20;;;;;;5031576;28;20120;-73
2023/09/08 04:22:10;;;;;;;10.05;6.60;;;16.10;84.30;;;;;;5028048;28;20037;-73
2023/09/08 04:24:36;;;;;;;9.27;6.22;;;16.00;84.50;;;;;;5024752;28;20034;-73
2023/09/08 04:27:02;;;;;;;9.50;5.95;;;15.80;84.80;;;;;;5021272;28;20401;-71
2023/09/08 04:29:28;;;;;;;12.88;6.10;;;15.70;85.30;;;;;;5018182;28;20037;-69
2023/09/08 04:31:53;;;;;;;11.85;6.90;;;15.70;85.40;;;;;;5025351;28;20056;-68
2023/09/08 04:34:18;;;;;;;12.63;6.53;;;15.70;85.60;;;;;;5036108;28;20117;-69
2023/09/08 04:36:44;;;;;;;9.32;6.15;;;15.80;85.60;;;;;;5028657;28;20033;-69
2023/09/08 04:39:11;;;;;;;8.50;6.20;;;15.70;85.50;;;;;;5034427;28;20031;-70
2023/09/08 04:41:37;;;;;;;10.48;6.53;;;15.70;85.90;;;;;;5032166;28;20124;-70
2023/09/08 04:44:03;;;;;;;11.70;6.50;;;15.70;85.80;;;;;;5029497;28;20047;-68
2023/09/08 04:46:29;;;;;;;8.98;6.10;;;15.60;85.80;;;;;;5025337;28;20030;-68
2023/09/08 04:48:54;;;;;;;13.88;6.88;;;15.60;86.00;;;;;;5026687;28;20135;-68
2023/09/08 04:51:20;;;;;;;10.65;6.43;;;15.70;85.80;;;;;;5027297;28;20056;-68
2023/09/08 04:53:45;;;;;;;11.25;5.90;;;15.70;85.70;;;;;;5026100;28;20037;-68
2023/09/08 04:56:13;;;;;;;9.98;6.30;;;15.80;85.60;;;;;;5022876;28;20072;-69
2023/09/08 04:58:38;;;;;;;12.65;6.97;;;15.80;85.90;;;;;;5007130;28;20038;-69
2023/09/08 05:01:05;;;;;;;9.45;6.60;;;15.70;85.80;;;;;;5019936;28;20092;-68
2023/09/08 05:03:31;;;;;;;9.43;6.32;;;15.70;86.20;;;;;;5021768;28;20475;-69
2023/09/08 05:05:56;;;;;;;7.80;5.82;;;15.70;86.10;;;;;;5024689;28;20041;-70
2023/09/08 05:08:22;;;;;;;10.88;6.35;;;15.70;86.20;;;;;;5033103;28;20057;-68
2023/09/08 05:10:47;;;;;;;11.60;6.85;;;15.60;86.20;;;;;;5030640;28;20387;-69
2023/09/08 05:13:13;;;;;;;10.50;6.38;;;15.60;86.40;;;;;;5026017;28;20056;-69
2023/09/08 05:15:42;;;;;;;12.38;6.85;;;15.80;86.00;;;;;;5026575;28;20059;-69
2023/09/08 05:18:07;;;;;;;9.32;6.47;;;15.70;86.10;;;;;;5029912;28;20452;-69
2023/09/08 05:20:33;;;;;;;11.55;7.20;;;15.80;86.20;;;;;;5031189;28;20090;-68
2023/09/08 05:22:58;;;;;;;8.10;6.10;;;15.80;86.20;;;;;;5029229;28;20024;-68
2023/09/08 05:25:24;;;;;;;13.60;6.88;;;15.90;85.90;;;;;;5028463;28;20048;-67
2023/09/08 05:27:49;;;;;;;8.98;6.35;;;15.90;85.70;;;;;;5026515;28;20095;-67
2023/09/08 05:30:15;;;;;;;10.32;6.55;;;16.00;85.70;;;;;;5009398;28;20037;-68
2023/09/08 05:32:40;;;;;;;9.68;6.75;;;16.10;85.30;;;;;;5023396;28;20029;-67
2023/09/08 05:35:06;;;;;;;10.27;6.93;;;16.10;85.30;;;;;;5026055;28;20038;-68
2023/09/08 05:37:31;;;;;;;9.07;6.50;;;16.20;85.10;;;;;;5023396;28;20080;-67
2023/09/08 05:39:57;;;;;;;12.73;6.93;;;16.20;85.30;;;;;;5035180;28;20462;-68
2023/09/08 05:42:22;;;;;;;10.80;6.70;;;16.10;85.40;;;;;;5024941;28;20094;-69
2023/09/08 05:44:48;;;;;;;10.10;6.82;;;16.20;85.30;;;;;;5026829;28;20045;-67
2023/09/08 05:47:14;;;;;;;12.40;6.43;;;16.20;85.70;;;;;;5032885;28;20044;-68
2023/09/08 05:49:39;;;;;;;12.15;7.45;;;16.30;85.30;;;;;;5025879;28;20025;-68
2023/09/08 05:52:05;;;;;;;10.45;6.88;;;16.30;85.10;;;;;;5018574;28;20055;-68
2023/09/08 05:54:31;;;;;;;10.50;6.65;;;16.40;84.80;;;;;;5030904;28;20478;-68
2023/09/08 05:56:56;;;;;;;11.57;6.65;;;16.50;84.70;;;;;;5038695;28;20036;-69
2023/09/08 05:59:22;;;;;;;11.48;7.47;;;16.60;84.30;;;;;;5032504;28;20377;-71
2023/09/08 06:01:47;;;;;;;10.13;7.05;;;16.60;84.30;;;;;;5023237;28;20380;-69
2023/09/08 06:04:13;;;;;;;12.82;6.88;;;16.70;84.30;;;;;;5015759;28;20037;-70
2023/09/08 06:06:38;;;;;;;10.30;6.55;;;16.70;84.20;;;;;;5032371;28;20057;-72
2023/09/08 06:09:06;;;;;;;11.50;6.65;;;16.80;83.90;;;;;;5026415;28;20111;-69
2023/09/08 06:11:31;;;;;;;9.20;6.25;;;16.90;83.40;;;;;;5032517;28;20235;-70
2023/09/08 06:13:59;;;;;;;8.90;6.72;;;16.90;83.90;;;;;;5027794;28;20534;-71
2023/09/08 06:16:25;;;;;;;11.27;6.60;;;16.90;84.10;;;;;;5027197;28;20148;-69
2023/09/08 06:18:50;;;;;;;11.43;6.90;;;17.00;83.50;;;;;;5031705;28;20045;-69
2023/09/08 06:21:16;;;;;;;13.77;6.63;;;17.10;83.50;;;;;;5034101;28;20508;-70
2023/09/08 06:23:41;;;;;;;8.60;6.53;;;17.20;83.00;;;;;;5033366;28;20136;-70
2023/09/08 06:26:07;;;;;;;9.43;6.30;;;17.40;82.60;;;;;;5032348;28;20034;-69
2023/09/08 06:28:32;;;;;;;13.23;6.95;;;17.30;82.90;;;;;;5030561;28;20040;-69
2023/09/08 06:30:57;;;;;;;12.30;6.97;;;17.50;82.50;;;;;;5034144;28;20116;-70
2023/09/08 06:33:23;;;;;;;10.10;7.05;;;17.60;81.90;;;;;;5029673;28;20108;-69
2023/09/08 06:35:49;;;;;;;12.02;6.97;;;17.60;82.40;;;;;;5033610;28;20044;-69
2023/09/08 06:38:14;;;;;;;9.82;6.55;;;17.60;82.50;;;;;;5031055;28;20040;-70
2023/09/08 06:40:40;;;;;;;10.27;6.60;;;17.70;82.50;;;;;;5036687;28;20036;-70
2023/09/08 06:43:05;;;;;;;10.27;5.85;;;17.80;82.00;;;;;;5029444;28;20041;-69
2023/09/08 06:45:31;;;;;;;11.00;6.82;;;17.80;82.30;;;;;;5031351;28;20044;-69
2023/09/08 06:47:57;;;;;;;14.52;6.90;;;17.90;82.40;;;;;;5028945;28;20499;-71
2023/09/08 06:50:23;;;;;;;11.80;6.22;;;18.00;81.80;;;;;;5037898;28;20032;-69
2023/09/08 06:52:52;;;;;;;10.23;6.63;;;18.00;81.80;;;;;;5039648;28;20741;-70
2023/09/08 06:55:17;;;;;;;11.07;6.50;;;18.00;81.50;;;;;;5034238;28;20062;-69
2023/09/08 06:57:44;;;;;;;11.48;6.43;;;18.10;81.20;;;;;;5040115;28;20411;-70
2023/09/08 07:00:11;;;;;;;9.02;5.88;;;18.20;81.50;;;;;;5013268;28;20036;-71
2023/09/08 07:02:37;;;;;;;9.30;6.00;;;18.20;81.90;;;;;;5017336;28;20072;-70
2023/09/08 07:05:07;;;;;;;14.25;6.70;;;18.30;80.80;;;;;;5024110;28;20355;-70
2023/09/08 07:07:36;;;;;;;15.30;6.93;;;18.40;81.10;;;;;;5043267;28;20020;-70
2023/09/08 07:10:03;;;;;;;11.88;5.82;;;18.50;80.50;;;;;;5033317;28;20462;-70
2023/09/08 07:12:29;;;;;;;10.18;6.72;;;18.50;80.90;;;;;;5027563;28;20052;-69
2023/09/08 07:14:55;;;;;;;10.82;6.28;;;18.70;80.00;;;;;;5029177;28;20072;-70
2023/09/08 07:17:20;;;;;;;11.00;6.63;;;18.70;80.80;;;;;;5024430;28;20041;-70
2023/09/08 07:19:46;;;;;;;8.85;5.53;;;18.80;80.10;;;;;;5030052;28;20438;-70
2023/09/08 07:22:11;;;;;;;10.90;6.00;;;18.90;80.20;;;;;;5037906;28;20098;-69
2023/09/08 07:24:36;;;;;;;10.55;6.43;;;18.90;80.10;;;;;;5011391;28;20108;-70
2023/09/08 07:27:02;;;;;;;11.20;6.22;;;19.00;79.40;;;;;;5029845;28;20466;-71
2023/09/08 07:29:28;;;;;;;10.10;6.68;;;19.10;79.30;;;;;;5025533;28;20029;-70
2023/09/08 07:31:53;;;;;;;9.25;6.40;;;19.00;79.80;;;;;;5029109;28;20080;-70
2023/09/08 07:34:19;;;;;;;9.20;6.03;;;19.10;79.90;;;;;;5027006;28;20025;-69
2023/09/08 07:36:44;;;;;;;10.07;6.05;;;19.10;79.70;;;;;;5028762;28;20036;-69
2023/09/08 07:39:10;;;;;;;9.05;5.97;;;19.40;79.40;;;;;;5027579;28;20021;-70
2023/09/08 07:41:36;;;;;;;10.02;5.85;;;19.40;79.80;;;;;;5011321;28;20030;-69
2023/09/08 07:44:01;;;;;;;9.88;6.22;;;19.50;79.30;;;;;;5027959;28;20017;-70
2023/09/08 07:46:27;;;;;;;13.65;6.40;;;19.60;79.50;;;;;;5026374;28;20454;-70
2023/09/08 07:48:52;;;;;;;9.40;6.28;;;19.60;79.90;;;;;;5027771;28;20095;-69
2023/09/08 07:51:18;;;;;;;11.43;6.38;;;19.80;79.10;;;;;;5017162;28;20108;-69
2023/09/08 07:53:43;;;;;;;11.23;5.78;;;19.90;78.80;;;;;;5029100;28;20346;-71
2023/09/08 07:56:09;;;;;;;10.10;6.60;;;20.10;77.90;;;;;;5032010;28;20022;-71
2023/09/08 07:58:34;;;;;;;13.32;6.63;;;20.30;77.50;;;;;;5024521;28;20025;-69
2023/09/08 08:01:00;;;;;;;9.55;5.85;;;20.50;76.70;;;;;;5027862;28;20108;-69
2023/09/08 08:03:25;;;;;;;9.38;5.50;;;20.70;75.80;;;;;;5028110;28;20060;-69
2023/09/08 08:05:51;;;;;;;10.52;6.20;;;20.90;75.70;;;;;;5031296;28;20489;-70
2023/09/08 08:08:16;;;;;;;10.18;5.60;;;21.00;74.60;;;;;;5030752;28;20044;-69
2023/09/08 08:10:42;;;;;;;8.95;5.50;;;21.20;74.40;;;;;;5033462;28;20037;-69
2023/09/08 08:13:07;;;;;;;8.63;5.57;;;21.40;74.40;;;;;;5028095;28;20059;-70
2023/09/08 08:15:38;;;;;;;10.25;5.95;;;21.60;73.50;;;;;;5032848;28;20461;-70
2023/09/08 08:18:05;;;;;;;8.65;5.35;;;21.90;74.30;;;;;;5033318;28;20473;-69
2023/09/08 08:20:34;;;;;;;17.23;5.78;;;22.10;73.00;;;;;;5023844;28;20026;-70
2023/09/08 08:23:03;;;;;;;10.90;5.45;;;22.30;72.10;;;;;;5024118;28;20159;-70
2023/09/08 08:25:28;;;;;;;11.45;5.97;;;22.50;71.60;;;;;;5024086;28;20064;-71
2023/09/08 08:27:54;;;;;;;9.65;5.05;;;22.70;71.60;;;;;;5021547;28;20106;-69
2023/09/08 08:30:20;;;;;;;15.48;5.53;;;23.00;70.60;;;;;;5026336;28;20030;-70
2023/09/08 08:32:45;;;;;;;8.00;5.28;;;23.10;70.70;;;;;;5022259;28;20052;-70
2023/09/08 08:35:11;;;;;;;7.53;4.50;;;23.30;69.50;;;;;;5024465;28;20029;-72
2023/09/08 08:37:39;;;;;;;12.43;6.00;;;23.50;69.50;;;;;;5022876;28;20029;-71
2023/09/08 08:40:06;;;;;;;8.77;4.75;;;23.80;69.50;;;;;;5027311;28;20101;-70
2023/09/08 08:42:33;;;;;;;12.27;5.15;;;24.00;68.80;;;;;;5023842;28;20378;-70
2023/09/08 08:45:00;;;;;;;10.15;4.85;;;24.00;67.40;;;;;;5025656;28;20369;-71
2023/09/08 08:47:28;;;;;;;8.50;4.80;;;24.20;67.80;;;;;;5029710;28;20017;-72
2023/09/08 08:49:58;;;;;;;8.93;4.38;;;24.40;67.50;;;;;;5027285;28;20021;-70
2023/09/08 08:52:25;;;;;;;9.43;5.00;;;24.40;66.40;;;;;;5031406;28;20060;-70
2023/09/08 08:54:50;;;;;;;7.50;4.47;;;24.60;67.30;;;;;;5025460;28;20036;-70
2023/09/08 08:57:16;;;;;;;9.02;5.20;;;24.60;65.50;;;;;;5028423;28;20042;-70
2023/09/08 08:59:41;;;;;;;10.05;5.00;;;24.90;64.90;;;;;;5007835;28;20490;-70
2023/09/08 09:02:10;;;;;;;8.40;5.00;;;24.90;64.30;;;;;;5025313;28;20044;-71
2023/09/08 09:04:37;;;;;;;7.53;5.32;;;25.10;65.90;;;;;;5020886;28;20109;-71
2023/09/08 09:07:06;;;;;;;6.82;4.95;;;25.20;66.00;;;;;;5020686;28;20067;-70
2023/09/08 09:09:31;;;;;;;8.98;4.57;;;25.50;65.40;;;;;;5033468;28;20488;-70
2023/09/08 09:11:57;;;;;;;6.38;4.50;;;25.50;63.90;;;;;;5024465;28;20030;-72
2023/09/08 09:14:23;;;;;;;8.07;4.72;;;25.80;65.60;;;;;;5025948;28;20041;-70
2023/09/08 09:16:49;;;;;;;7.00;4.22;;;26.00;62.30;;;;;;5024595;28;20060;-70
2023/09/08 09:19:27;;;;;;;7.47;4.00;;;26.10;61.20;;;;;;5032442;28;20084;-70
2023/09/08 09:21:54;;;;;;;9.50;4.07;;;26.20;61.30;;;;;;5031616;28;20041;-71
2023/09/08 09:24:45;;;;;;;6.55;3.80;;;26.30;59.90;;;;;;5025376;28;20505;-70
2023/09/08 09:27:10;;;;;;;7.97;4.60;;;26.40;59.80;;;;;;5026416;28;20530;-70
2023/09/08 09:29:50;;;;;;;7.18;3.63;;;26.50;59.40;;;;;;5034808;28;20108;-71
2023/09/08 09:32:22;;;;;;;7.28;3.95;;;26.50;58.10;;;;;;5027887;28;20037;-70
2023/09/08 09:34:53;;;;;;;7.20;4.30;;;26.40;59.20;;;;;;5030729;28;20032;-71
2023/09/08 09:37:18;;;;;;;;;;;26.50;59.20;;;;;;5033704;28;20022;-71
2023/09/08 09:39:49;;;;;;;6.22;4.07;;;26.80;57.30;;;;;;5030903;28;19933;-70
2023/09/08 09:42:15;;;;;;;8.18;4.78;;;26.80;55.50;;;;;;5030959;28;20576;-70
2023/09/08 09:44:40;;;;;;;9.65;3.83;;;27.20;59.00;;;;;;5027080;28;20116;-71
2023/09/08 09:47:08;;;;;;;8.50;4.15;;;27.10;58.20;;;;;;5033043;28;20448;-70
2023/09/08 09:49:42;;;;;;;4.90;3.60;;;27.40;54.30;;;;;;5029762;28;20036;-70
2023/09/08 09:52:08;;;;;;;6.40;4.57;;;27.60;56.20;;;;;;5033788;28;20055;-70
2023/09/08 09:54:33;;;;;;;6.80;4.30;;;27.20;55.70;;;;;;5032145;28;20112;-71
2023/09/08 09:57:00;;;;;;;6.32;4.22;;;27.40;55.40;;;;;;5032925;28;20489;-71
2023/09/08 09:59:26;;;;;;;6.70;3.70;;;27.60;55.90;;;;;;5023372;28;20022;-70
2023/09/08 10:01:53;;;;;;;7.50;4.07;;;27.70;55.20;;;;;;5026197;28;20370;-71
2023/09/08 10:04:18;;;;;;;8.05;3.85;;;27.70;54.40;;;;;;5025667;28;20343;-72
2023/09/08 10:06:45;;;;;;;7.25;4.25;;;27.70;54.70;;;;;;5024169;28;20029;-70
2023/09/08 10:09:15;;;;;;;5.72;3.88;;;27.90;53.70;;;;;;5012327;28;20052;-71
2023/09/08 10:11:47;;;;;;;7.95;4.30;;;28.10;55.70;;;;;;5030827;28;20029;-71
2023/09/08 10:14:15;;;;;;;6.78;4.18;;;27.80;54.10;;;;;;5029791;28;20425;-70
2023/09/08 10:16:44;;;;;;;8.27;4.22;;;27.80;54.60;;;;;;5028345;28;20049;-70
2023/09/08 10:19:11;;;;;;;7.00;3.88;;;27.60;54.00;;;;;;5042447;28;20033;-72
2023/09/08 10:21:41;;;;;;;8.10;4.03;;;28.00;55.20;;;;;;5027007;28;20032;-70
2023/09/08 10:24:18;;;;;;;8.68;4.07;;;28.00;56.20;;;;;;5025674;28;20045;-71
2023/09/08 10:26:48;;;;;;;5.93;3.80;;;28.30;54.00;;;;;;5024752;28;20051;-70
2023/09/08 10:29:14;;;;;;;7.13;3.57;;;28.20;52.80;;;;;;5033204;28;20024;-70
2023/09/08 10:31:40;;;;;;;9.07;4.03;;;28.00;53.30;;;;;;5008372;28;20284;-70
2023/09/08 10:34:06;;;;;;;6.85;3.85;;;27.90;52.90;;;;;;5031773;28;20048;-70
2023/09/08 10:36:34;;;;;;;7.63;3.78;;;28.30;51.30;;;;;;5029904;28;20040;-69
2023/09/08 10:39:31;;;;;;;6.40;3.55;;;28.40;52.20;;;;;;5028846;28;20121;-72
2023/09/08 10:42:19;;;;;;;8.77;3.85;;;28.80;52.70;;;;;;5031530;28;20451;-70
2023/09/08 10:44:56;;;;;;;8.05;3.88;;;29.00;51.90;;;;;;5033904;28;20029;-71
2023/09/08 10:47:44;;;;;;;6.15;3.60;;;29.20;51.00;;;;;;5027810;28;20049;-70
2023/09/08 10:50:19;;;;;;;5.93;3.53;;;28.80;52.10;;;;;;5029190;28;20034;-71
2023/09/08 10:53:03;;;;;;;6.40;3.78;;;29.00;50.20;;;;;;5033057;28;20036;-71
2023/09/08 10:55:37;;;;;;;5.68;3.67;;;29.30;51.10;;;;;;5025318;28;20416;-71
2023/09/08 10:58:03;;;;;;;6.80;3.30;;;29.70;49.70;;;;;;5028006;28;20021;-70
2023/09/08 11:00:43;;;;;;;6.32;3.28;;;30.00;50.00;;;;;;5027317;28;20071;-71
2023/09/08 11:03:09;;;;;;;4.47;2.70;;;29.90;47.00;;;;;;5035697;28;20429;-73
2023/09/08 11:05:35;;;;;;;7.75;3.35;;;30.20;49.20;;;;;;5030230;28;20060;-71
2023/09/08 11:08:01;;;;;;;5.22;2.90;;;30.00;47.20;;;;;;5033689;28;20067;-71
2023/09/08 11:10:28;;;;;;;4.28;2.78;;;30.30;46.80;;;;;;5028930;28;20079;-71
2023/09/08 11:12:54;;;;;;;4.53;2.92;;;30.30;47.10;;;;;;5022917;28;20695;-72
2023/09/08 11:15:20;;;;;;;4.70;2.95;;;30.50;47.20;;;;;;5030891;28;20032;-72
2023/09/08 11:17:50;;;;;;;5.38;3.22;;;30.50;46.30;;;;;;5021458;28;20152;-71
2023/09/08 11:20:16;;;;;;;6.13;3.15;;;30.20;46.60;;;;;;5034227;28;20067;-72
2023/09/08 11:22:43;;;;;;;7.88;2.75;;;29.80;48.00;;;;;;5027858;28;20112;-72
2023/09/08 11:25:12;;;;;;;5.65;3.28;;;30.10;47.40;;;;;;5032541;28;20022;-71
2023/09/08 11:27:39;;;;;;;5.95;2.97;;;30.50;48.30;;;;;;5031556;28;20026;-72
2023/09/08 11:30:06;;;;;;;4.57;2.85;;;30.60;47.00;;;;;;5035331;28;20033;-72
2023/09/08 11:32:33;;;;;;;5.00;3.08;;;30.90;44.30;;;;;;5026950;28;20018;-72
2023/09/08 11:35:05;;;;;;;5.40;3.00;;;31.20;45.10;;;;;;5035750;28;20034;-72
2023/09/08 11:37:31;;;;;;;5.70;3.05;;;31.30;43.60;;;;;;5019079;28;20064;-71
2023/09/08 11:39:56;;;;;;;5.78;2.97;;;31.50;45.40;;;;;;5027723;28;20045;-72
2023/09/08 11:42:21;;;;;;;4.80;2.75;;;31.30;43.70;;;;;;5025428;28;20454;-72
2023/09/08 11:44:49;;;;;;;6.63;3.00;;;31.10;44.60;;;;;;5030843;28;20168;-72
2023/09/08 11:47:15;;;;;;;5.50;2.75;;;31.70;44.10;;;;;;5032908;28;20025;-71
2023/09/08 11:49:41;;;;;;;4.10;2.38;;;31.70;40.60;;;;;;5034338;28;20026;-71
2023/09/08 11:52:07;;;;;;;5.95;2.88;;;31.90;42.60;;;;;;5034561;28;20043;-71
2023/09/08 11:54:35;;;;;;;3.80;2.40;;;31.60;40.60;;;;;;5030303;28;20089;-71
2023/09/08 11:57:02;;;;;;;4.32;2.65;;;31.60;43.50;;;;;;5032595;28;20041;-71
2023/09/08 11:59:31;;;;;;;6.47;2.70;;;32.20;41.20;;;;;;5028476;28;20039;-71
2023/09/08 12:01:57;;;;;;;6.47;2.78;;;32.00;41.20;;;;;;5030271;28;20040;-71
2023/09/08 12:04:23;;;;;;;5.68;2.47;;;32.20;41.10;;;;;;5034555;28;20025;-71
2023/09/08 12:06:51;;;;;;;5.45;2.70;;;32.40;39.40;;;;;;5041899;28;20027;-72
2023/09/08 12:09:16;;;;;;;5.70;2.58;;;31.80;41.30;;;;;;5033205;28;20022;-71
2023/09/08 12:11:42;;;;;;;5.40;2.60;;;32.50;40.60;;;;;;5031599;28;20032;-71
2023/09/08 12:14:12;;;;;;;4.85;3.13;;;32.50;39.60;;;;;;5030348;28;20033;-72
2023/09/08 12:16:38;;;;;;;4.15;2.67;;;32.40;39.00;;;;;;5016924;28;20053;-72
2023/09/08 12:19:04;;;;;;;4.93;2.70;;;33.30;40.20;;;;;;5039155;28;20040;-74
2023/09/08 12:21:31;;;;;;;5.93;2.83;;;33.70;40.30;;;;;;5016993;28;20033;-71
2023/09/08 12:23:57;;;;;;;4.28;2.58;;;33.90;40.00;;;;;;5028227;28;20128;-72
2023/09/08 12:26:25;;;;;;;4.68;2.35;;;33.10;39.60;;;;;;5023855;28;20124;-72
2023/09/08 12:28:51;;;;;;;4.30;2.80;;;33.00;40.00;;;;;;5022367;28;20142;-72
2023/09/08 12:31:17;;;;;;;4.78;2.35;;;33.20;37.80;;;;;;5024580;28;20580;-73
2023/09/08 12:33:43;;;;;;;6.00;2.15;;;33.60;38.60;;;;;;5030195;28;20497;-72
2023/09/08 12:36:17;;;;;;;2.83;2.25;;;33.70;37.90;;;;;;5006403;28;20454;-73
2023/09/08 12:38:52;;;;;;;10.15;2.55;;;33.00;36.30;;;;;;5030144;28;20038;-74
2023/09/08 12:41:18;;;;;;;3.83;2.13;;;33.40;37.00;;;;;;4994847;28;20049;-74
2023/09/08 12:43:45;;;;;;;3.25;2.28;;;34.30;35.70;;;;;;5026465;28;20040;-72